ADDS METAR Data INFO
IDs: Format: Raw Decoded Include TAF

Data at: 0749 UTC 20 Feb 2018

KT82 200735Z AUTO 17014G17KT 10SM OVC016 20/17 A2987 RMK AO2 T02040166
KT82 200715Z AUTO 18012G19KT 10SM OVC016 21/17 A2987 RMK AO2 T02060166
KT82 200655Z AUTO 18017G23KT 10SM OVC016 21/17 A2987 RMK AO2 T02060169
KT82 200635Z AUTO 18012G23KT 10SM OVC012 21/17 A2987 RMK AO2 T02050170
KT82 200615Z AUTO 18015G22KT 10SM OVC012 21/17 A2985 RMK AO2 T02050171
KT82 200555Z AUTO 17014G18KT 10SM OVC012 20/17 A2985 RMK AO2 T02040173 10231 20204 402480180
KT82 200535Z AUTO 17015G22KT 10SM OVC012 21/18 A2987 RMK AO2 T02050175
KT82 200515Z AUTO 17013G19KT 10SM OVC012 21/18 A2986 RMK AO2 T02050175
KT82 200455Z AUTO 17011G17KT 10SM OVC012 21/17 A2987 RMK AO2 T02060174
KT82 200435Z AUTO 17013G18KT 10SM OVC012 21/18 A2986 RMK AO2 T02070175
KT82 200415Z AUTO 16008G17KT 10SM OVC014 21/18 A2985 RMK AO2 T02080175
KT82 200355Z AUTO 16009G15KT 10SM OVC014 21/18 A2985 RMK AO2 T02080175
KT82 200335Z AUTO 15010G15KT 10SM OVC014 21/18 A2986 RMK AO2 T02100175
KT82 200315Z AUTO 15009G16KT 10SM OVC014 21/18 A2986 RMK AO2 T02100175
KT82 200255Z AUTO 15007KT 10SM OVC016 21/18 A2985 RMK AO2 T02110175
KT82 200235Z AUTO 14009G15KT 10SM OVC016 21/17 A2985 RMK AO2 T02120173
KT82 200215Z AUTO 15009G15KT 10SM OVC018 21/17 A2985 RMK AO2 T02140172
KT82 200155Z AUTO 16007G15KT 10SM OVC018 22/17 A2985 RMK AO2 T02150173
KT82 200135Z AUTO 14009G17KT 10SM BKN018 BKN040 OVC050 22/18 A2984 RMK AO2 T02170175
KT82 200115Z AUTO 16011G17KT 10SM SCT018 BKN046 OVC065 22/18 A2984 RMK AO2 T02180175
KT82 200055Z AUTO 15010KT 10SM BKN020 BKN028 OVC049 22/18 A2983 RMK AO2 T02220175
KT82 200035Z AUTO 17010G14KT 10SM BKN025 BKN031 23/17 A2985 RMK AO2 T02250171
KT82 200015Z AUTO 16005KT 10SM SCT037 23/16 A2983 RMK AO2 T02270162
KT82 192355Z AUTO 15005KT 10SM SCT037 SCT047 23/16 A2981 RMK AO2 LTG DSNT SE T02310159 10248 20215
KT82 192335Z AUTO 17010KT 10SM SCT039 SCT050 BKN120 24/16 A2983 RMK AO2 T02360155
KT82 192315Z AUTO 19013KT 10SM VCTS SCT050 SCT075 BKN120 24/16 A2983 RMK AO2 T02400155
KT82 192255Z AUTO 18014G19KT 10SM SCT120 24/15 A2982 RMK AO2 T02400152
KT82 192235Z AUTO 18019G24KT 10SM SCT032 SCT120 25/15 A2982 RMK AO2 T02470154
KT82 192215Z AUTO 19013G19KT 10SM SCT032 BKN039 25/15 A2982 RMK AO2 T02460154
KT82 192155Z AUTO 17013G22KT 10SM BKN030 BKN041 24/15 A2982 RMK AO2 T02400154
KT82 192135Z AUTO 18015G20KT 10SM SCT028 BKN037 25/15 A2982 RMK AO2 T02450154
KT82 192115Z AUTO 18010G19KT 10SM SCT030 BKN037 25/15 A2983 RMK AO2 T02450150
KT82 192055Z AUTO 17014G18KT 10SM OVC030 24/15 A2983 RMK AO2 T02400150
KT82 192035Z AUTO 19016G20KT 10SM BKN030 OVC035 24/15 A2984 RMK AO2 T02360150
KT82 192015Z AUTO 19012G19KT 10SM BKN029 OVC035 23/15 A2984 RMK AO2 T02280147
KT82 191955Z AUTO 19013G20KT 10SM BKN029 OVC036 23/15 A2985 RMK AO2 T02280150
KT82 191935Z AUTO 18017G22KT 10SM OVC029 22/15 A2986 RMK AO2 T02210149
KT82 191915Z AUTO 18014G18KT 10SM BKN027 OVC033 22/15 A2987 RMK AO2 T02190147
KT82 191855Z AUTO 19015G23KT 10SM BKN027 OVC033 22/15 A2988 RMK AO2 T02150145
KT82 191835Z AUTO 19017G24KT 10SM OVC029 22/15 A2989 RMK AO2 T02200146
KT82 191815Z AUTO 19015G26KT 10SM SCT025 OVC030 22/15 A2989 RMK AO2 T02170145
KT82 191755Z AUTO 18015G22KT 10SM BKN024 OVC030 22/15 A2990 RMK AO2 T02170146 10221 20191
KT82 191735Z AUTO 19018G27KT 10SM BKN026 OVC031 22/15 A2990 RMK AO2 T02170147
KT82 191715Z AUTO 18024G28KT 10SM BKN026 OVC033 22/15 A2991 RMK AO2 T02190147
KT82 191655Z AUTO 19016G24KT 10SM BKN024 OVC030 22/15 A2991 RMK AO2 T02200148
KT82 191635Z AUTO 20017G24KT 10SM OVC024 21/15 A2991 RMK AO2 T02140147
KT82 191615Z AUTO 20019G24KT 10SM BKN024 OVC030 21/15 A2991 RMK AO2 T02110147
KT82 191555Z AUTO 19015G25KT 10SM BKN024 BKN030 21/15 A2991 RMK AO2 T02070149
KT82 191535Z AUTO 19017G27KT 10SM BKN020 OVC026 21/15 A2991 RMK AO2 T02050151
KT82 191515Z AUTO 18015G20KT 10SM OVC018 20/15 A2991 RMK AO2 T02020152
KT82 191455Z AUTO 18016G21KT 10SM OVC020 20/15 A2991 RMK AO2 T01980150
KT82 191435Z AUTO 18012G18KT 10SM OVC018 20/15 A2990 RMK AO2 T01950151
KT82 191415Z AUTO 17012KT 10SM OVC018 19/15 A2991 RMK AO2 T01920152
KT82 191355Z AUTO 17007G16KT 10SM OVC018 19/15 A2991 RMK AO2 T01910151
KT82 191335Z AUTO 17010G16KT 10SM OVC018 19/15 A2991 RMK AO2 T01920151
KT82 191315Z AUTO 17010G14KT 10SM OVC018 19/15 A2991 RMK AO2 T01910151
KT82 191255Z AUTO 17008KT 10SM OVC018 19/15 A2992 RMK AO2 T01920151
KT82 191235Z AUTO 16007KT 10SM OVC020 19/15 A2992 RMK AO2 T01920150
KT82 191215Z AUTO 19010G16KT 10SM OVC020 19/15 A2993 RMK AO2 T01920150
KT82 191155Z AUTO 20007G14KT 10SM OVC020 19/15 A2994 RMK AO2 T01920150 10193 20180
KT82 191135Z AUTO 19010KT 10SM OVC020 19/15 A2994 RMK AO2 T01910150
KT82 191115Z AUTO 20008KT 10SM OVC020 19/15 A2994 RMK AO2 T01920150
KT82 191055Z AUTO 20007KT 10SM OVC020 19/15 A2994 RMK AO2 T01920151
KT82 191035Z AUTO 20013G19KT 10SM OVC018 19/15 A2993 RMK AO2 T01930150
KT82 191015Z AUTO 19008G19KT 10SM OVC018 19/15 A2994 RMK AO2 T01930151
KT82 190955Z AUTO 21011G16KT 10SM OVC016 19/15 A2993 RMK AO2 T01920152
KT82 190935Z AUTO 20013G20KT 10SM OVC016 19/15 A2993 RMK AO2 T01920152
KT82 190915Z AUTO 20010G14KT 10SM OVC016 19/15 A2993 RMK AO2 T01920152
KT82 190855Z AUTO 21011G15KT 10SM OVC016 19/15 A2993 RMK AO2 T01920152
KT82 190835Z AUTO 18008KT 10SM OVC016 19/15 A2992 RMK AO2 T01900151
KT82 190815Z AUTO 18008G16KT 10SM OVC016 19/15 A2991 RMK AO2 T01900152
KT82 190755Z AUTO 19009KT 10SM OVC014 19/15 A2993 RMK AO2 T01900152
KT82 190735Z AUTO 18008G18KT 10SM OVC014 19/15 A2991 RMK AO2 T01900152
KT82 190715Z AUTO 18007KT 10SM OVC014 19/15 A2991 RMK AO2 T01870152
KT82 190655Z AUTO 17009KT 10SM OVC014 19/15 A2991 RMK AO2 T01850151
KT82 190635Z AUTO 17006G14KT 10SM BKN014 BKN019 18/15 A2991 RMK AO2 T01810147
KT82 190615Z AUTO 16008KT 120V180 10SM SCT018 18/14 A2992 RMK AO2 T01800141
KT82 190555Z AUTO 15007G14KT 10SM BKN018 18/14 A2992 RMK AO2 T01830141 10210 20183 402200074
KT82 190535Z AUTO 17008KT 10SM CLR 19/14 A2993 RMK AO2 T01850137
KT82 190515Z AUTO 17008G14KT 10SM CLR 19/13 A2993 RMK AO2 T01870133
KT82 190455Z AUTO 16010KT 130V190 10SM CLR 19/13 A2993 RMK AO2 T01900132
KT82 190435Z AUTO 17007G15KT 10SM CLR 19/13 A2993 RMK AO2 T01930130
KT82 190415Z AUTO 16005G16KT 10SM CLR 20/13 A2992 RMK AO2 T01950130
KT82 190355Z AUTO 16008G15KT 130V190 10SM CLR 20/13 A2992 RMK AO2 T01970131
KT82 190335Z AUTO 15008KT 110V180 10SM CLR 20/14 A2992 RMK AO2 T02000135
KT82 190315Z AUTO 16010G16KT 10SM CLR 20/14 A2991 RMK AO2 T02000141
KT82 190255Z AUTO 16009KT 10SM CLR 20/15 A2992 RMK AO2 T02030145
KT82 190235Z AUTO 16008G15KT 10SM CLR 21/15 A2992 RMK AO2 T02050145
KT82 190215Z AUTO 17008KT 10SM CLR 21/15 A2992 RMK AO2 T02050148
KT82 190155Z AUTO 16008KT 10SM SCT034 SCT045 20/15 A2991 RMK AO2 T02010151
KT82 190135Z AUTO 15004KT 10SM SCT032 20/15 A2991 RMK AO2 T01970153
KT82 190115Z AUTO 00000KT 10SM CLR 20/15 A2991 RMK AO2 T02000151
KT82 190055Z AUTO 16004KT 10SM CLR 21/15 A2991 RMK AO2 T02070151
KT82 190035Z AUTO 16008KT 10SM CLR 21/15 A2992 RMK AO2 T02100151
KT82 190015Z AUTO 15004KT 10SM CLR 21/16 A2992 RMK AO2 T02060155
KT82 182355Z AUTO 15005KT 10SM CLR 21/16 A2992 RMK AO2 T02100155 10220 20147
KT82 182335Z AUTO 15007KT 10SM SCT027 SCT037 SCT043 21/16 A2992 RMK AO2 T02140155
KT82 182315Z AUTO 15009KT 120V180 10SM SCT027 SCT039 SCT120 22/15 A2992 RMK AO2 T02180153
KT82 182255Z AUTO 16012G15KT 10SM SCT025 SCT030 SCT120 22/15 A2992 RMK AO2 T02200151
KT82 182235Z AUTO 16010G15KT 10SM SCT023 BKN029 BKN120 22/15 A2993 RMK AO2 T02180152
KT82 182215Z AUTO 14008KT 10SM BKN021 OVC029 21/15 A2994 RMK AO2 T02120153
KT82 182155Z AUTO 17011G14KT 10SM BKN021 OVC026 22/16 A2995 RMK AO2 T02160155
KT82 182135Z AUTO 16010G15KT 10SM SCT013 OVC021 20/15 A2995 RMK AO2 T02020154
KT82 182115Z AUTO 15007KT 120V180 10SM OVC012 20/15 A2996 RMK AO2 T01950153
KT82 182055Z AUTO 15007KT 10SM OVC010 19/15 A2997 RMK AO2 T01850150
KT82 182035Z AUTO 15009KT 10SM BKN010 OVC019 19/15 A2998 RMK AO2 T01930152
KT82 182015Z AUTO 16012KT 10SM BKN010 OVC017 20/15 A2999 RMK AO2 T01970152
KT82 181955Z AUTO 18013G21KT 10SM OVC010 19/15 A3000 RMK AO2 T01910153